createdAt,value
2024-03-14T00:01:13.806Z,7.20
2024-03-14T00:03:41.362Z,7.19
2024-03-14T00:06:10.192Z,7.14
2024-03-14T00:08:37.928Z,7.09
2024-03-14T00:11:05.638Z,7.09
2024-03-14T00:13:34.956Z,7.11
2024-03-14T00:16:02.657Z,7.12
2024-03-14T00:18:32.678Z,7.08
2024-03-14T00:21:00.777Z,7.00
2024-03-14T00:23:28.496Z,6.94
2024-03-14T00:25:57.392Z,6.87
2024-03-14T00:28:24.942Z,6.81
2024-03-14T00:30:52.304Z,6.76
2024-03-14T00:33:21.250Z,6.71
2024-03-14T00:35:49.283Z,6.67
2024-03-14T00:38:16.930Z,6.63
2024-03-14T00:40:45.921Z,6.60
2024-03-14T00:43:13.777Z,6.54
2024-03-14T00:45:41.450Z,6.50
2024-03-14T00:48:10.329Z,6.49
2024-03-14T00:50:38.102Z,6.52
2024-03-14T00:53:05.679Z,6.56
2024-03-14T00:55:34.542Z,6.58
2024-03-14T00:58:02.515Z,6.60
2024-03-14T01:00:30.199Z,6.60
2024-03-14T01:02:59.207Z,6.58
2024-03-14T01:05:26.739Z,6.55
2024-03-14T01:07:54.293Z,6.52
2024-03-14T01:10:23.416Z,6.51
2024-03-14T01:12:50.937Z,6.50
2024-03-14T01:15:18.657Z,6.49
2024-03-14T01:17:47.802Z,6.48
2024-03-14T01:20:15.560Z,6.46
2024-03-14T01:22:43.140Z,6.43
2024-03-14T01:25:11.920Z,6.40
2024-03-14T01:27:39.624Z,6.39
2024-03-14T01:30:07.461Z,6.39
2024-03-14T01:32:36.504Z,6.40
2024-03-14T01:35:04.093Z,6.44
2024-03-14T01:37:31.758Z,6.47
2024-03-14T01:40:00.535Z,6.51
2024-03-14T01:42:28.237Z,6.52
2024-03-14T01:44:55.921Z,6.55
2024-03-14T01:47:24.764Z,6.59
2024-03-14T01:49:52.316Z,6.62
2024-03-14T01:52:19.951Z,6.62
2024-03-14T01:54:48.868Z,6.62
2024-03-14T01:57:16.628Z,6.64
2024-03-14T01:59:44.600Z,6.70
2024-03-14T02:02:13.482Z,6.75
2024-03-14T02:04:41.039Z,6.74
2024-03-14T02:07:08.806Z,6.71
2024-03-14T02:09:37.694Z,6.64
2024-03-14T02:12:05.401Z,6.61
2024-03-14T02:14:33.228Z,6.62
2024-03-14T02:17:02.007Z,6.60
2024-03-14T02:19:29.881Z,6.57
2024-03-14T02:21:57.471Z,6.54
2024-03-14T02:24:26.347Z,6.51
2024-03-14T02:26:53.916Z,6.49
2024-03-14T02:29:21.344Z,6.46
2024-03-14T02:31:50.235Z,6.44
2024-03-14T02:34:17.796Z,6.42
2024-03-14T02:36:45.469Z,6.42
2024-03-14T02:39:14.525Z,6.41
2024-03-14T02:41:42.322Z,6.40
2024-03-14T02:44:10.287Z,6.38
2024-03-14T02:46:39.075Z,6.39
2024-03-14T02:49:06.747Z,6.38
2024-03-14T02:51:34.290Z,6.37
2024-03-14T02:54:03.238Z,6.37
2024-03-14T02:56:30.857Z,6.37
2024-03-14T02:58:58.504Z,6.36
2024-03-14T03:01:27.300Z,6.38
2024-03-14T03:03:54.960Z,6.40
2024-03-14T03:06:22.687Z,6.37
2024-03-14T03:08:52.073Z,6.39
2024-03-14T03:11:19.708Z,6.39
2024-03-14T03:13:47.234Z,6.38
2024-03-14T03:16:16.131Z,6.37
2024-03-14T03:18:43.806Z,6.36
2024-03-14T03:21:11.603Z,6.36
2024-03-14T03:23:40.439Z,6.35
2024-03-14T03:26:08.002Z,6.38
2024-03-14T03:28:35.869Z,6.37
2024-03-14T03:31:04.759Z,6.33
2024-03-14T03:33:32.410Z,6.30
2024-03-14T03:36:00.119Z,6.26
2024-03-14T03:38:28.981Z,6.25
2024-03-14T03:40:56.627Z,6.26
2024-03-14T03:43:24.188Z,6.26
2024-03-14T03:45:52.977Z,6.24
2024-03-14T03:48:21.069Z,6.24
2024-03-14T03:50:48.728Z,6.21
2024-03-14T03:53:17.600Z,6.19
2024-03-14T03:55:45.163Z,6.18
2024-03-14T03:58:12.825Z,6.18
2024-03-14T04:00:41.738Z,6.18
2024-03-14T04:03:10.891Z,6.17
2024-03-14T04:05:40.431Z,6.17
2024-03-14T04:08:08.603Z,6.16
2024-03-14T04:10:36.376Z,6.16
2024-03-14T04:13:05.243Z,6.12
2024-03-14T04:15:32.911Z,6.06
2024-03-14T04:18:00.664Z,6.03
2024-03-14T04:20:29.798Z,6.03
2024-03-14T04:22:57.526Z,6.05
2024-03-14T04:25:25.089Z,6.10
2024-03-14T04:27:54.000Z,6.18
2024-03-14T04:30:21.545Z,6.24
2024-03-14T04:32:49.242Z,6.28
2024-03-14T04:35:18.323Z,6.27
2024-03-14T04:37:45.844Z,6.26
2024-03-14T04:40:13.454Z,6.23
2024-03-14T04:42:42.420Z,6.23
2024-03-14T04:45:10.158Z,6.24
2024-03-14T04:47:37.837Z,6.29
2024-03-14T04:50:06.707Z,6.36
2024-03-14T04:52:34.277Z,6.39
2024-03-14T04:55:01.754Z,6.35
2024-03-14T04:57:30.647Z,6.31
2024-03-14T04:59:58.253Z,6.28
2024-03-14T05:02:25.946Z,6.27
2024-03-14T05:04:54.839Z,6.26
2024-03-14T05:07:22.388Z,6.26
2024-03-14T05:09:50.372Z,6.25
2024-03-14T05:12:19.190Z,6.23
2024-03-14T05:14:47.015Z,6.19
2024-03-14T05:17:14.672Z,6.15
2024-03-14T05:19:43.470Z,6.14
2024-03-14T05:22:11.225Z,6.14
2024-03-14T05:24:38.790Z,6.17
2024-03-14T05:27:07.719Z,6.24
2024-03-14T05:29:35.743Z,6.32
2024-03-14T05:32:03.411Z,6.42
2024-03-14T05:34:32.200Z,6.46
2024-03-14T05:36:59.863Z,6.47
2024-03-14T05:39:27.230Z,6.47
2024-03-14T05:41:56.230Z,6.47
2024-03-14T05:44:23.759Z,6.50
2024-03-14T05:46:51.328Z,6.52
2024-03-14T05:49:20.019Z,6.55
2024-03-14T05:51:47.973Z,6.55
2024-03-14T05:54:15.578Z,6.59
2024-03-14T05:56:44.526Z,6.62
2024-03-14T05:59:12.184Z,6.60
2024-03-14T06:01:39.903Z,6.58
2024-03-14T06:04:08.744Z,6.55
2024-03-14T06:06:36.317Z,6.53
2024-03-14T06:09:04.005Z,6.51
2024-03-14T06:11:33.084Z,6.52
2024-03-14T06:14:01.041Z,6.56
2024-03-14T06:16:28.590Z,6.61
2024-03-14T06:18:57.561Z,6.65
2024-03-14T06:21:25.450Z,6.72
2024-03-14T06:23:53.244Z,6.78
2024-03-14T06:26:22.097Z,6.89
2024-03-14T06:28:49.758Z,7.03
2024-03-14T06:31:17.342Z,7.16
2024-03-14T06:33:46.641Z,7.22
2024-03-14T06:36:14.680Z,7.29
2024-03-14T06:38:44.702Z,7.38
2024-03-14T06:41:12.261Z,7.46
2024-03-14T06:43:39.821Z,7.49
2024-03-14T06:46:08.712Z,7.50
2024-03-14T06:48:36.328Z,7.53
2024-03-14T06:51:04.185Z,7.56
2024-03-14T06:53:33.033Z,7.60
2024-03-14T06:56:00.998Z,7.65
2024-03-14T06:58:28.689Z,7.66
2024-03-14T07:00:57.821Z,7.66
2024-03-14T07:03:25.553Z,7.69
2024-03-14T07:05:53.308Z,7.76
2024-03-14T07:08:22.265Z,7.85
2024-03-14T07:10:49.896Z,7.94
2024-03-14T07:13:17.490Z,8.06
2024-03-14T07:15:46.695Z,8.16
2024-03-14T07:18:14.334Z,8.28
2024-03-14T07:20:42.125Z,8.39
2024-03-14T07:23:10.905Z,8.49
2024-03-14T07:25:38.466Z,8.58
2024-03-14T07:28:06.129Z,8.67
2024-03-14T07:30:35.015Z,8.74
2024-03-14T07:33:02.890Z,8.82
2024-03-14T07:35:30.956Z,8.93
2024-03-14T07:38:02.103Z,9.07
2024-03-14T07:40:29.959Z,9.20
2024-03-14T07:42:58.851Z,9.32
2024-03-14T07:45:26.442Z,9.46
2024-03-14T07:47:54.697Z,9.62
2024-03-14T07:50:23.806Z,9.75
2024-03-14T07:52:51.452Z,9.87
2024-03-14T07:55:19.002Z,10.02
2024-03-14T07:57:48.415Z,10.15
2024-03-14T08:00:16.024Z,10.29
2024-03-14T08:02:46.179Z,10.44
2024-03-14T08:05:13.864Z,10.58
2024-03-14T08:07:41.507Z,10.73
2024-03-14T08:10:10.398Z,10.85
2024-03-14T08:12:38.094Z,10.98
2024-03-14T08:15:05.738Z,11.10
2024-03-14T08:17:35.060Z,11.20
2024-03-14T08:20:02.679Z,11.29
2024-03-14T08:22:32.489Z,11.39
2024-03-14T08:25:00.250Z,11.48
2024-03-14T08:27:27.821Z,11.56
2024-03-14T08:29:56.832Z,11.69
2024-03-14T08:32:24.474Z,11.80
2024-03-14T08:34:52.129Z,11.93
2024-03-14T08:37:21.367Z,12.06
2024-03-14T08:39:49.125Z,12.17
2024-03-14T08:42:16.925Z,12.30
2024-03-14T08:44:45.845Z,12.42
2024-03-14T08:47:13.615Z,12.51
2024-03-14T08:49:41.174Z,12.60
2024-03-14T08:52:10.067Z,12.68
2024-03-14T08:54:37.835Z,12.77
2024-03-14T08:57:06.230Z,12.86
2024-03-14T08:59:36.036Z,12.97
2024-03-14T09:02:03.575Z,13.09
2024-03-14T09:04:31.240Z,13.24
2024-03-14T09:07:00.157Z,13.38
2024-03-14T09:09:27.652Z,13.51
2024-03-14T09:11:55.426Z,13.64
2024-03-14T09:14:24.449Z,13.73
2024-03-14T09:16:52.106Z,13.82
2024-03-14T09:19:19.664Z,13.90
2024-03-14T09:21:48.963Z,13.94
2024-03-14T09:24:16.779Z,13.93
2024-03-14T09:26:44.772Z,13.87
2024-03-14T09:29:13.815Z,13.75
2024-03-14T09:31:41.346Z,13.65
2024-03-14T09:34:09.141Z,13.56
2024-03-14T09:36:38.123Z,13.54
2024-03-14T09:39:05.722Z,13.57
2024-03-14T09:41:34.242Z,13.62
2024-03-14T09:44:03.669Z,13.57
2024-03-14T09:46:31.209Z,13.55
2024-03-14T09:48:58.797Z,13.47
2024-03-14T09:51:27.702Z,13.33
2024-03-14T09:53:55.574Z,13.21
2024-03-14T09:56:23.565Z,13.09
2024-03-14T09:58:54.114Z,12.98
2024-03-14T10:01:22.139Z,12.88
2024-03-14T10:03:51.510Z,12.84
2024-03-14T10:06:20.257Z,12.97
2024-03-14T10:08:50.100Z,13.19
2024-03-14T10:11:18.170Z,13.38
2024-03-14T10:13:47.977Z,13.64
2024-03-14T10:16:15.642Z,13.91
2024-03-14T10:18:43.383Z,14.15
2024-03-14T10:21:12.422Z,14.37
2024-03-14T10:23:40.267Z,14.55
2024-03-14T10:26:08.138Z,14.68
2024-03-14T10:28:37.024Z,14.76
2024-03-14T10:31:04.683Z,14.74
2024-03-14T10:33:33.021Z,14.78
2024-03-14T10:36:02.186Z,14.74
2024-03-14T10:38:30.020Z,14.62
2024-03-14T10:40:57.685Z,14.52
2024-03-14T10:43:26.475Z,14.56
2024-03-14T10:45:54.535Z,14.70
2024-03-14T10:48:22.449Z,14.77
2024-03-14T10:50:51.449Z,14.79
2024-03-14T10:53:19.064Z,14.78
2024-03-14T10:55:46.746Z,14.79
2024-03-14T10:58:16.025Z,14.71
2024-03-14T11:00:43.718Z,14.68
2024-03-14T11:03:11.388Z,14.68
2024-03-14T11:05:40.253Z,14.66
2024-03-14T11:08:08.213Z,14.56
2024-03-14T11:10:35.762Z,14.44
2024-03-14T11:13:04.648Z,14.26
2024-03-14T11:15:32.414Z,14.15
2024-03-14T11:18:00.279Z,14.05
2024-03-14T11:20:29.388Z,14.02
2024-03-14T11:22:56.933Z,14.02
2024-03-14T11:25:24.514Z,14.02
2024-03-14T11:27:53.696Z,14.02
2024-03-14T11:30:21.400Z,14.02
2024-03-14T11:32:49.148Z,13.99
2024-03-14T11:35:18.111Z,13.97
2024-03-14T11:37:45.671Z,13.96
2024-03-14T11:40:13.335Z,13.97
2024-03-14T11:42:42.196Z,14.01
2024-03-14T11:45:10.340Z,13.95
2024-03-14T11:47:38.288Z,13.89
2024-03-14T11:50:07.272Z,13.83
2024-03-14T11:52:34.935Z,13.75
2024-03-14T11:55:02.583Z,13.64
2024-03-14T11:57:31.526Z,13.52
2024-03-14T12:00:06.691Z,13.36
2024-03-14T12:02:37.199Z,13.19
2024-03-14T12:05:04.999Z,13.10
2024-03-14T12:07:32.662Z,12.98
2024-03-14T12:10:01.551Z,12.87
2024-03-14T12:12:29.130Z,12.86
2024-03-14T12:14:56.788Z,12.95
2024-03-14T12:17:26.176Z,13.09
2024-03-14T12:19:53.834Z,13.21
2024-03-14T12:22:23.659Z,13.22
2024-03-14T12:24:51.319Z,13.22
2024-03-14T12:27:19.218Z,13.27
2024-03-14T12:29:48.179Z,13.33
2024-03-14T12:32:15.751Z,13.36
2024-03-14T12:34:43.422Z,13.49
2024-03-14T12:37:12.283Z,13.64
2024-03-14T12:39:39.875Z,13.74
2024-03-14T12:42:07.632Z,13.85
2024-03-14T12:44:36.593Z,13.95
2024-03-14T12:47:04.163Z,14.02
2024-03-14T12:49:31.619Z,14.01
2024-03-14T12:52:00.517Z,14.11
2024-03-14T12:54:28.109Z,14.22
2024-03-14T12:56:55.876Z,14.45
2024-03-14T12:59:27.721Z,14.63
2024-03-14T13:02:01.098Z,14.71
2024-03-14T13:04:28.648Z,14.74
2024-03-14T13:06:56.312Z,14.81
2024-03-14T13:09:24.998Z,14.92
2024-03-14T13:11:52.655Z,14.96
2024-03-14T13:14:20.525Z,14.92
2024-03-14T13:16:49.403Z,14.82
2024-03-14T13:19:17.066Z,14.84
2024-03-14T13:21:44.686Z,14.83
2024-03-14T13:24:13.665Z,14.78
2024-03-14T13:26:41.294Z,14.71
2024-03-14T13:29:08.942Z,14.65
2024-03-14T13:31:37.727Z,14.63
2024-03-14T13:34:05.353Z,14.61
2024-03-14T13:36:33.478Z,14.58
2024-03-14T13:39:02.362Z,14.54
2024-03-14T13:41:30.228Z,14.46
2024-03-14T13:43:57.987Z,14.36
2024-03-14T13:46:26.768Z,14.24
2024-03-14T13:48:54.477Z,14.23
2024-03-14T13:51:22.258Z,14.29
2024-03-14T13:53:51.202Z,14.40
2024-03-14T13:56:18.746Z,14.41
2024-03-14T13:58:46.715Z,14.29
2024-03-14T14:01:15.635Z,14.19
2024-03-14T14:03:43.322Z,14.15
2024-03-14T14:06:11.217Z,14.04
2024-03-14T14:08:40.564Z,13.92
2024-03-14T14:11:08.348Z,13.79
2024-03-14T14:13:36.080Z,13.63
2024-03-14T14:16:04.846Z,13.43
2024-03-14T14:18:32.784Z,13.25
2024-03-14T14:21:00.618Z,13.09
2024-03-14T14:23:29.502Z,12.92
2024-03-14T14:25:57.140Z,12.79
2024-03-14T14:28:24.801Z,12.67
2024-03-14T14:30:53.489Z,12.57
2024-03-14T14:33:21.197Z,12.50
2024-03-14T14:35:49.106Z,12.49
2024-03-14T14:38:17.907Z,12.50
2024-03-14T14:43:49.167Z,12.60
2024-03-14T14:47:14.942Z,12.60
2024-03-14T15:08:10.203Z,12.61
2024-03-14T15:10:40.900Z,12.59
2024-03-14T15:13:14.267Z,12.59
2024-03-14T15:15:49.959Z,12.61
2024-03-14T15:18:22.247Z,12.61
2024-03-14T15:20:53.217Z,12.63
2024-03-14T15:23:28.858Z,12.63
2024-03-14T15:26:05.815Z,12.62
2024-03-14T15:28:38.410Z,12.58
2024-03-14T15:31:12.524Z,12.53
2024-03-14T15:33:45.493Z,12.49
2024-03-14T15:36:19.547Z,12.44
2024-03-14T15:38:52.265Z,12.36
2024-03-14T15:41:23.141Z,12.27
2024-03-14T15:43:55.310Z,12.18
2024-03-14T15:46:26.448Z,12.10
2024-03-14T15:48:58.515Z,12.01
2024-03-14T15:51:29.383Z,11.92
2024-03-14T15:54:01.556Z,11.83
2024-03-14T15:56:34.606Z,11.76
2024-03-14T15:59:06.978Z,11.66
2024-03-14T16:01:38.440Z,11.58
2024-03-14T16:04:10.421Z,11.49
2024-03-14T16:06:41.611Z,11.41
2024-03-14T16:09:16.187Z,11.31
2024-03-14T16:11:49.309Z,11.22
2024-03-14T16:14:20.288Z,11.11
2024-03-14T16:16:52.324Z,10.99
2024-03-14T16:19:25.240Z,10.86
2024-03-14T16:21:57.553Z,10.73
2024-03-14T16:24:29.259Z,10.59
2024-03-14T16:27:01.268Z,10.45
2024-03-14T16:29:32.354Z,10.32
2024-03-14T16:32:05.463Z,10.21
2024-03-14T16:34:36.297Z,10.08
2024-03-14T16:37:08.617Z,9.95
2024-03-14T16:39:39.479Z,9.81
2024-03-14T16:42:11.892Z,9.68
2024-03-14T16:44:42.920Z,9.54
2024-03-14T16:47:14.876Z,9.40
2024-03-14T16:49:46.332Z,9.26
2024-03-14T16:52:18.290Z,9.12
2024-03-14T16:54:49.092Z,8.96
2024-03-14T16:57:23.866Z,8.82
2024-03-14T16:59:58.077Z,8.67
2024-03-14T17:02:29.008Z,8.53
2024-03-14T17:05:02.628Z,8.39
2024-03-14T17:07:33.447Z,8.27
2024-03-14T17:10:05.887Z,8.15
2024-03-14T17:12:36.751Z,8.04
2024-03-14T17:15:09.410Z,7.90
2024-03-14T17:17:41.192Z,7.81
2024-03-14T17:20:14.247Z,7.68
2024-03-14T17:22:45.934Z,7.59
2024-03-14T17:25:20.488Z,7.52
2024-03-14T17:27:56.177Z,7.45
2024-03-14T17:30:29.305Z,7.40
2024-03-14T17:33:00.434Z,7.37
2024-03-14T17:35:33.228Z,7.36
2024-03-14T17:38:03.951Z,7.33
2024-03-14T17:40:36.020Z,7.30
2024-03-14T17:43:12.624Z,7.28
2024-03-14T17:45:44.891Z,7.25
2024-03-14T17:48:15.754Z,7.21
2024-03-14T17:50:47.861Z,7.15
2024-03-14T17:53:20.847Z,7.08
2024-03-14T17:55:52.811Z,6.98
2024-03-14T17:58:23.653Z,6.92
2024-03-14T18:00:55.925Z,6.87
2024-03-14T18:03:28.442Z,6.82
2024-03-14T18:06:00.573Z,6.76
2024-03-14T18:08:31.405Z,6.71
2024-03-14T18:11:05.629Z,6.65
2024-03-14T18:13:40.865Z,6.59
2024-03-14T18:16:14.378Z,6.54
2024-03-14T18:18:46.024Z,6.50
2024-03-14T18:21:18.188Z,6.45
2024-03-14T18:23:49.005Z,6.39
2024-03-14T18:26:24.148Z,6.33
2024-03-14T18:28:57.644Z,6.26
2024-03-14T18:31:37.380Z,6.20
2024-03-14T18:34:11.076Z,6.18
2024-03-14T18:36:43.259Z,6.14
2024-03-14T18:39:15.469Z,6.09
2024-03-14T18:41:48.410Z,6.06
2024-03-14T18:44:23.034Z,6.03
2024-03-14T18:46:57.858Z,6.02
2024-03-14T18:49:29.418Z,6.06
2024-03-14T18:52:01.651Z,6.07
2024-03-14T18:54:42.582Z,6.06
2024-03-14T18:57:18.264Z,6.02
2024-03-14T18:59:49.043Z,5.97
2024-03-14T19:02:22.904Z,5.95
2024-03-14T19:04:54.164Z,5.94
2024-03-14T19:07:26.462Z,5.89
2024-03-14T19:09:57.209Z,5.86
2024-03-14T19:12:29.372Z,5.86
2024-03-14T19:15:00.429Z,5.91
2024-03-14T19:17:32.592Z,5.96
2024-03-14T19:20:06.593Z,6.01
2024-03-14T19:22:39.233Z,6.04
2024-03-14T19:25:11.730Z,6.07
2024-03-14T19:27:43.730Z,6.10
2024-03-14T19:30:15.720Z,6.10
2024-03-14T19:32:50.531Z,6.09
2024-03-14T19:35:23.591Z,6.04
2024-03-14T19:37:54.413Z,5.99
2024-03-14T19:40:26.999Z,5.95
2024-03-14T19:42:59.290Z,5.92
2024-03-14T19:45:32.984Z,5.89
2024-03-14T19:48:04.552Z,5.87
2024-03-14T19:50:37.024Z,5.86
2024-03-14T19:53:08.232Z,5.84
2024-03-14T19:55:40.399Z,5.80
2024-03-14T19:58:13.587Z,5.74
2024-03-14T20:00:47.134Z,5.66
2024-03-14T20:03:18.798Z,5.60
2024-03-14T20:05:51.132Z,5.56
2024-03-14T20:08:22.231Z,5.52
2024-03-14T20:10:54.953Z,5.50
2024-03-14T20:13:27.622Z,5.48
2024-03-14T20:15:59.867Z,5.47
2024-03-14T20:18:30.958Z,5.45
2024-03-14T20:21:04.488Z,5.42
2024-03-14T20:23:35.172Z,5.37
2024-03-14T20:26:09.588Z,5.34
2024-03-14T20:28:40.675Z,5.29
2024-03-14T20:31:12.835Z,5.23
2024-03-14T20:33:44.744Z,5.17
2024-03-14T20:36:17.177Z,5.14
2024-03-14T20:38:49.083Z,5.11
2024-03-14T20:41:24.744Z,5.09
2024-03-14T20:43:57.522Z,5.06
2024-03-14T20:46:28.525Z,5.04
2024-03-14T20:49:00.814Z,5.00
2024-03-14T20:51:31.778Z,4.97
2024-03-14T20:54:05.976Z,4.93
2024-03-14T20:56:50.341Z,4.87
2024-03-14T20:59:25.173Z,4.83
2024-03-14T21:01:58.161Z,4.79
2024-03-14T21:04:29.889Z,4.75
2024-03-14T21:07:03.623Z,4.69
2024-03-14T21:09:34.347Z,4.66
2024-03-14T21:12:09.406Z,4.67
2024-03-14T21:14:43.178Z,4.69
2024-03-14T21:17:13.811Z,4.72
2024-03-14T21:19:46.901Z,4.75
2024-03-14T21:22:17.943Z,4.76
2024-03-14T21:24:50.722Z,4.74
2024-03-14T21:27:24.820Z,4.71
2024-03-14T21:29:56.913Z,4.69
2024-03-14T21:32:28.042Z,4.67
2024-03-14T21:35:00.116Z,4.67
2024-03-14T21:37:32.253Z,4.65
2024-03-14T21:40:07.133Z,4.61
2024-03-14T21:42:40.802Z,4.56
2024-03-14T21:45:12.204Z,4.51
2024-03-14T21:47:45.282Z,4.46
2024-03-14T21:50:18.285Z,4.41
2024-03-14T21:52:51.420Z,4.36
2024-03-14T21:55:22.989Z,4.31
2024-03-14T21:57:57.239Z,4.27
2024-03-14T22:00:31.048Z,4.25
2024-03-14T22:03:02.315Z,4.26
2024-03-14T22:05:34.751Z,4.27
2024-03-14T22:08:06.163Z,4.24
2024-03-14T22:10:38.432Z,4.21
2024-03-14T22:13:11.218Z,4.18
2024-03-14T22:15:45.155Z,4.13
2024-03-14T22:18:19.593Z,4.11
2024-03-14T22:20:53.349Z,4.10
2024-03-14T22:23:24.077Z,4.07
2024-03-14T22:25:55.944Z,4.02
2024-03-14T22:28:26.888Z,3.99
2024-03-14T22:31:10.314Z,3.96
2024-03-14T22:33:44.776Z,3.94
2024-03-14T22:36:16.091Z,3.93
2024-03-14T22:38:49.070Z,3.96
2024-03-14T22:41:20.720Z,3.98
2024-03-14T22:43:52.686Z,4.00
2024-03-14T22:46:23.409Z,3.99
2024-03-14T22:48:56.809Z,3.94
2024-03-14T22:51:32.265Z,3.84
2024-03-14T22:54:05.229Z,3.73
2024-03-14T22:56:37.730Z,3.66
2024-03-14T22:59:08.655Z,3.62
2024-03-14T23:01:40.892Z,3.60
2024-03-14T23:04:12.812Z,3.58
2024-03-14T23:06:44.802Z,3.57
2024-03-14T23:09:16.029Z,3.56
2024-03-14T23:11:48.056Z,3.56
2024-03-14T23:14:18.808Z,3.56
2024-03-14T23:16:52.623Z,3.57
2024-03-14T23:19:24.208Z,3.58
2024-03-14T23:21:56.329Z,3.56
2024-03-14T23:24:27.047Z,3.53
2024-03-14T23:26:59.186Z,3.51
2024-03-14T23:29:29.957Z,3.46
2024-03-14T23:32:04.058Z,3.41
2024-03-14T23:34:35.608Z,3.36
2024-03-14T23:37:08.720Z,3.34
2024-03-14T23:39:39.406Z,3.34
2024-03-14T23:42:12.079Z,3.35
2024-03-14T23:44:42.742Z,3.35
2024-03-14T23:47:14.916Z,3.34
2024-03-14T23:49:45.747Z,3.34
2024-03-14T23:52:17.813Z,3.33
2024-03-14T23:54:48.595Z,3.32
2024-03-14T23:57:21.460Z,3.28
2024-03-14T23:59:52.485Z,3.26
